createdAt,value
2022-12-20T00:02:09.199Z,4.97
2022-12-20T00:04:44.221Z,5.57
2022-12-20T00:07:17.557Z,6.72
2022-12-20T00:09:46.623Z,4.68
2022-12-20T00:12:15.670Z,4.93
2022-12-20T00:14:45.006Z,5.32
2022-12-20T00:17:13.936Z,4.40
2022-12-20T00:19:45.219Z,4.97
2022-12-20T00:22:14.556Z,5.22
2022-12-20T00:24:45.071Z,4.97
2022-12-20T00:27:14.526Z,4.93
2022-12-20T00:29:43.673Z,4.80
2022-12-20T00:32:17.738Z,4.72
2022-12-20T00:34:47.111Z,5.10
2022-12-20T00:37:18.133Z,5.90
2022-12-20T00:39:50.092Z,5.03
2022-12-20T00:42:19.584Z,5.30
2022-12-20T00:44:51.101Z,5.75
2022-12-20T00:47:22.933Z,5.05
2022-12-20T00:49:56.159Z,4.80
2022-12-20T00:52:25.573Z,5.40
2022-12-20T00:54:58.523Z,4.88
2022-12-20T00:57:28.000Z,4.45
2022-12-20T00:59:57.529Z,4.68
2022-12-20T01:02:27.088Z,5.47
2022-12-20T01:04:56.329Z,4.57
2022-12-20T01:07:26.736Z,4.95
2022-12-20T01:09:57.550Z,4.90
2022-12-20T01:12:27.637Z,4.55
2022-12-20T01:14:56.740Z,4.78
2022-12-20T01:17:25.580Z,4.72
2022-12-20T01:19:55.022Z,5.70
2022-12-20T01:22:26.559Z,5.35
2022-12-20T01:25:03.211Z,5.40
2022-12-20T01:27:32.812Z,5.00
2022-12-20T01:30:02.027Z,5.80
2022-12-20T01:32:30.854Z,4.65
2022-12-20T01:35:00.321Z,5.55
2022-12-20T01:37:33.304Z,5.20
2022-12-20T01:40:04.021Z,5.22
2022-12-20T01:42:33.315Z,5.60
2022-12-20T01:45:03.636Z,4.88
2022-12-20T01:47:38.743Z,4.85
2022-12-20T01:50:11.077Z,4.65
2022-12-20T01:52:44.702Z,4.90
2022-12-20T01:55:21.657Z,5.25
2022-12-20T01:57:58.686Z,6.15
2022-12-20T02:00:29.183Z,5.20
2022-12-20T02:03:02.992Z,4.68
2022-12-20T02:05:37.983Z,6.15
2022-12-20T02:08:09.197Z,4.75
2022-12-20T02:10:55.240Z,4.00
2022-12-20T02:13:36.249Z,4.53
2022-12-20T02:16:06.064Z,5.60
2022-12-20T02:18:40.126Z,4.60
2022-12-20T02:21:32.832Z,4.68
2022-12-20T02:24:46.406Z,4.55
2022-12-20T02:27:57.053Z,4.75
2022-12-20T02:30:35.751Z,4.60
2022-12-20T02:33:09.011Z,4.28
2022-12-20T02:35:41.003Z,4.78
2022-12-20T02:38:29.024Z,4.80
2022-12-20T02:41:02.904Z,4.68
2022-12-20T02:43:51.847Z,4.20
2022-12-20T02:46:25.544Z,5.00
2022-12-20T02:49:02.404Z,4.53
2022-12-20T02:51:36.773Z,5.60
2022-12-20T02:54:06.775Z,4.22
2022-12-20T02:56:39.844Z,5.50
2022-12-20T02:59:13.271Z,5.07
2022-12-20T03:01:50.079Z,4.93
2022-12-20T03:04:24.471Z,4.63
2022-12-20T03:07:13.486Z,4.78
2022-12-20T03:09:44.769Z,4.30
2022-12-20T03:12:17.511Z,4.28
2022-12-20T03:14:46.803Z,4.25
2022-12-20T03:17:18.499Z,4.50
2022-12-20T03:19:47.996Z,4.43
2022-12-20T03:22:17.289Z,4.25
2022-12-20T03:24:46.533Z,4.53
2022-12-20T03:27:16.890Z,4.80
2022-12-20T03:29:47.168Z,4.47
2022-12-20T03:32:16.478Z,4.68
2022-12-20T03:34:48.441Z,3.97
2022-12-20T03:37:24.767Z,4.25
2022-12-20T03:39:59.232Z,3.63
2022-12-20T03:42:28.724Z,4.70
2022-12-20T03:44:58.314Z,3.83
2022-12-20T03:47:30.464Z,4.07
2022-12-20T03:50:04.158Z,3.92
2022-12-20T03:52:37.469Z,4.35
2022-12-20T03:58:42.091Z,3.92
2022-12-20T04:01:23.003Z,5.18
2022-12-20T04:03:56.237Z,4.85
2022-12-20T04:06:27.024Z,4.23
2022-12-20T04:08:58.772Z,4.25
2022-12-20T04:11:33.134Z,4.22
2022-12-20T04:14:09.522Z,4.55
2022-12-20T04:16:38.875Z,4.65
2022-12-20T04:19:09.131Z,4.15
2022-12-20T04:21:47.373Z,3.85
2022-12-20T04:24:25.789Z,5.60
2022-12-20T04:27:04.959Z,4.40
2022-12-20T04:29:36.903Z,4.15
2022-12-20T04:32:09.316Z,4.80
2022-12-20T04:34:40.974Z,4.00
2022-12-20T04:37:11.848Z,4.47
2022-12-20T04:39:48.533Z,4.70
2022-12-20T04:42:27.309Z,5.20
2022-12-20T04:44:59.308Z,5.10
2022-12-20T04:47:31.533Z,5.30
2022-12-20T04:50:00.846Z,4.25
2022-12-20T04:52:51.057Z,5.00
2022-12-20T04:55:20.390Z,4.95
2022-12-20T04:57:49.582Z,4.68
2022-12-20T05:00:19.687Z,5.40
2022-12-20T05:02:54.586Z,5.15
2022-12-20T05:05:26.706Z,4.72
2022-12-20T05:07:59.260Z,5.20
2022-12-20T05:10:30.813Z,4.90
2022-12-20T05:13:08.977Z,6.13
2022-12-20T05:15:43.764Z,4.82
2022-12-20T05:18:13.370Z,5.32
2022-12-20T05:21:15.473Z,5.93
2022-12-20T05:24:06.240Z,6.13
2022-12-20T05:26:47.448Z,6.07
2022-12-20T05:29:17.843Z,5.72
2022-12-20T05:31:47.749Z,7.30
2022-12-20T05:34:19.261Z,5.50
2022-12-20T05:36:53.336Z,6.22
2022-12-20T05:39:26.024Z,5.90
2022-12-20T05:41:57.761Z,5.43
2022-12-20T05:44:27.889Z,6.32
2022-12-20T05:46:59.508Z,6.00
2022-12-20T05:49:31.886Z,5.33
2022-12-20T05:52:03.601Z,6.13
2022-12-20T05:54:34.274Z,5.40
2022-12-20T05:57:16.130Z,6.15
2022-12-20T05:59:45.308Z,5.00
2022-12-20T06:02:19.701Z,5.00
2022-12-20T06:04:52.079Z,5.33
2022-12-20T06:07:24.245Z,5.50
2022-12-20T06:09:59.880Z,4.63
2022-12-20T06:12:41.378Z,6.75
2022-12-20T06:15:19.480Z,4.95
2022-12-20T06:17:48.604Z,5.10
2022-12-20T06:20:18.120Z,4.85
2022-12-20T06:22:49.760Z,4.60
2022-12-20T06:25:20.672Z,4.07
2022-12-20T06:27:49.593Z,4.47
2022-12-20T06:30:21.083Z,5.70
2022-12-20T06:33:09.668Z,5.13
2022-12-20T06:35:38.440Z,3.70
2022-12-20T06:38:08.391Z,5.30
2022-12-20T06:40:39.503Z,4.05
2022-12-20T06:43:08.589Z,3.90
2022-12-20T06:45:41.600Z,4.85
2022-12-20T06:48:15.713Z,4.50
2022-12-20T06:50:50.676Z,4.22
2022-12-20T08:42:09.626Z,4.22
2022-12-20T08:44:39.165Z,3.97
2022-12-20T08:47:08.333Z,3.97
2022-12-20T08:49:42.397Z,4.35
2022-12-20T08:52:17.825Z,4.80
2022-12-20T08:54:47.629Z,4.25
2022-12-20T08:57:18.905Z,4.40
2022-12-20T08:59:48.251Z,4.38
2022-12-20T09:02:18.059Z,3.90
2022-12-20T09:04:47.704Z,4.25
2022-12-20T09:07:17.435Z,4.03
2022-12-20T09:09:48.961Z,3.47
2022-12-20T09:12:20.439Z,4.32
2022-12-20T09:14:49.641Z,3.95
2022-12-20T09:17:19.112Z,4.32
2022-12-20T09:19:49.000Z,4.15
2022-12-20T09:22:18.259Z,4.97
2022-12-20T09:24:48.036Z,4.55
2022-12-20T09:27:17.724Z,4.35
2022-12-20T09:29:48.350Z,4.82
2022-12-20T09:32:18.248Z,5.15
2022-12-20T09:34:48.487Z,4.43
2022-12-20T09:37:18.497Z,6.50
2022-12-20T09:39:51.386Z,4.85
2022-12-20T09:42:25.852Z,4.97
2022-12-20T09:45:04.760Z,5.35
2022-12-20T09:47:37.459Z,5.13
2022-12-20T09:50:08.343Z,5.45
2022-12-20T09:52:57.525Z,4.97
2022-12-20T09:55:35.667Z,5.53
2022-12-20T09:58:22.824Z,4.65
2022-12-20T10:00:54.922Z,5.28
2022-12-20T10:03:30.802Z,4.75
2022-12-20T10:06:14.880Z,4.90
2022-12-20T10:08:48.116Z,5.55
2022-12-20T10:11:44.846Z,6.60
2022-12-20T10:14:35.720Z,5.35
2022-12-20T10:17:15.382Z,4.95
2022-12-20T10:20:04.950Z,4.97
2022-12-20T10:22:43.500Z,6.50
2022-12-20T10:25:20.076Z,4.97
2022-12-20T10:27:51.551Z,4.50
2022-12-20T10:30:23.116Z,5.18
2022-12-20T10:32:56.392Z,5.40
2022-12-20T10:35:29.716Z,5.55
2022-12-20T10:38:09.814Z,4.78
2022-12-20T10:43:44.661Z,4.95
2022-12-20T10:46:16.945Z,5.03
2022-12-20T10:48:49.428Z,5.57
2022-12-20T10:51:21.244Z,5.57
2022-12-20T10:53:57.807Z,4.55
2022-12-20T10:56:29.462Z,6.35
2022-12-20T10:59:00.981Z,5.30
2022-12-20T11:01:33.117Z,5.47
2022-12-20T11:04:07.688Z,5.68
2022-12-20T11:06:46.544Z,6.22
2022-12-20T11:09:31.955Z,5.32
2022-12-20T11:12:03.872Z,7.07
2022-12-20T11:14:39.282Z,4.78
2022-12-20T11:17:27.123Z,5.03
2022-12-20T11:20:13.727Z,5.43
2022-12-20T11:22:53.351Z,6.10
2022-12-20T11:25:37.570Z,5.50
2022-12-20T11:28:30.052Z,5.93
2022-12-20T11:31:11.285Z,5.93
2022-12-20T11:33:57.691Z,6.05
2022-12-20T11:36:45.000Z,5.90
2022-12-20T11:39:20.927Z,5.78
2022-12-20T11:42:00.428Z,6.45
2022-12-20T11:44:53.922Z,6.28
2022-12-20T11:47:44.920Z,6.90
2022-12-20T11:50:35.526Z,6.07
2022-12-20T11:53:11.982Z,6.57
2022-12-20T11:55:44.647Z,6.93
2022-12-20T11:58:21.681Z,6.18
2022-12-20T12:00:57.605Z,6.03
2022-12-20T12:03:34.701Z,5.45
2022-12-20T12:06:08.808Z,6.50
2022-12-20T12:08:47.049Z,6.13
2022-12-20T12:14:24.155Z,6.60
2022-12-20T12:16:59.401Z,6.45
2022-12-20T12:19:31.998Z,6.15
2022-12-20T12:22:07.018Z,6.00
2022-12-20T12:24:42.781Z,5.70
2022-12-20T12:27:21.627Z,5.57
2022-12-20T12:29:53.144Z,5.88
2022-12-20T12:32:30.686Z,6.18
2022-12-20T12:35:24.987Z,6.05
2022-12-20T12:38:06.394Z,6.30
2022-12-20T12:41:01.792Z,6.78
2022-12-20T12:43:47.388Z,5.75
2022-12-20T12:46:20.438Z,6.22
2022-12-20T12:48:56.666Z,6.43
2022-12-20T12:51:31.713Z,7.22
2022-12-20T12:54:17.679Z,6.15
2022-12-20T12:56:49.873Z,6.70
2022-12-20T12:59:52.070Z,8.00
2022-12-20T13:02:52.009Z,6.15
2022-12-20T13:05:36.956Z,6.55
2022-12-20T13:08:18.430Z,6.68
2022-12-20T13:11:15.086Z,5.38
2022-12-20T13:13:46.119Z,6.63
2022-12-20T13:17:09.382Z,7.07
2022-12-20T13:19:35.421Z,6.18
2022-12-20T13:22:23.122Z,6.57
2022-12-20T13:24:57.141Z,8.10
2022-12-20T13:27:32.635Z,7.03
2022-12-20T13:30:33.600Z,7.60
2022-12-20T13:33:20.627Z,7.03
2022-12-20T13:36:02.147Z,7.03
2022-12-20T13:38:53.374Z,6.22
2022-12-20T13:41:36.393Z,6.47
2022-12-20T13:44:30.894Z,6.15
2022-12-20T13:47:07.451Z,6.10
2022-12-20T13:49:40.433Z,6.00
2022-12-20T13:52:28.914Z,6.03
2022-12-20T13:55:01.357Z,6.30
2022-12-20T13:57:34.720Z,5.78
2022-12-20T14:00:16.283Z,6.40
2022-12-20T14:02:47.761Z,5.55
2022-12-20T14:05:21.055Z,6.60
2022-12-20T14:07:58.047Z,6.32
2022-12-20T14:10:29.451Z,6.70
2022-12-20T14:13:00.425Z,7.18
2022-12-20T14:15:33.973Z,7.70
2022-12-20T14:18:17.808Z,8.90
2022-12-20T14:20:51.267Z,7.72
2022-12-20T14:23:23.675Z,7.25
2022-12-20T14:25:55.613Z,7.73
2022-12-20T14:28:31.445Z,8.85
2022-12-20T14:31:03.506Z,8.68
2022-12-20T14:33:37.744Z,8.05
2022-12-20T14:36:11.801Z,8.73
2022-12-20T14:38:42.199Z,11.13
2022-12-20T14:41:32.846Z,9.88
2022-12-20T14:44:16.937Z,9.85
2022-12-20T14:46:51.346Z,8.25
2022-12-20T14:49:26.914Z,9.45
2022-12-20T14:52:08.142Z,8.93
2022-12-20T14:57:41.628Z,10.35
2022-12-20T15:00:16.832Z,10.00
2022-12-20T15:02:52.394Z,9.35
2022-12-20T15:05:53.496Z,10.50
2022-12-20T15:08:28.618Z,10.03
2022-12-20T15:13:32.306Z,10.10
2022-12-20T15:16:04.683Z,9.75
2022-12-20T15:18:34.597Z,10.83
2022-12-20T15:21:08.575Z,10.50
2022-12-20T15:23:39.098Z,10.25
2022-12-20T15:26:08.863Z,10.20
2022-12-20T15:28:38.472Z,10.80
2022-12-20T15:31:12.188Z,12.10
2022-12-20T15:33:43.283Z,10.85
2022-12-20T15:36:18.471Z,12.02
2022-12-20T15:41:43.452Z,11.43
2022-12-20T15:44:16.786Z,11.15
2022-12-20T15:46:46.584Z,12.57
2022-12-20T15:49:17.699Z,12.23
2022-12-20T15:51:50.574Z,11.88
2022-12-20T15:54:27.036Z,11.63
2022-12-20T15:57:03.044Z,12.20
2022-12-20T15:59:58.880Z,11.50
2022-12-20T16:02:26.011Z,12.55
2022-12-20T16:04:56.744Z,12.18
2022-12-20T16:07:27.344Z,12.23
2022-12-20T16:09:57.951Z,12.50
2022-12-20T16:12:29.734Z,12.57
2022-12-20T16:14:59.450Z,12.77
2022-12-20T16:17:29.385Z,12.52
2022-12-20T16:19:59.013Z,12.85
2022-12-20T16:22:29.895Z,13.15
2022-12-20T16:24:59.290Z,14.43
2022-12-20T16:27:28.399Z,13.70
2022-12-20T16:29:58.193Z,12.52
2022-12-20T16:32:27.615Z,14.93
2022-12-20T16:34:57.195Z,13.23
2022-12-20T16:37:27.054Z,15.02
2022-12-20T16:40:00.399Z,14.05
2022-12-20T16:42:29.923Z,13.93
2022-12-20T16:44:59.330Z,15.30
2022-12-20T16:47:29.663Z,15.13
2022-12-20T16:49:58.990Z,13.43
2022-12-20T16:52:28.293Z,15.00
2022-12-20T16:54:57.293Z,15.20
2022-12-20T16:57:29.711Z,16.27
2022-12-20T17:00:01.523Z,21.13
2022-12-20T17:02:34.240Z,49.58
2022-12-20T17:05:03.544Z,14.65
2022-12-20T17:07:39.599Z,13.38
2022-12-20T17:10:11.750Z,13.43
2022-12-20T17:12:42.789Z,14.20
2022-12-20T17:15:18.987Z,14.30
2022-12-20T17:17:49.094Z,13.95
2022-12-20T17:20:22.173Z,13.50
2022-12-20T17:25:42.171Z,13.80
2022-12-20T17:28:12.787Z,14.48
2022-12-20T17:30:42.092Z,16.35
2022-12-20T17:33:16.505Z,14.93
2022-12-20T17:35:48.435Z,16.13
2022-12-20T17:38:18.492Z,15.00
2022-12-20T17:40:47.655Z,15.15
2022-12-20T17:43:18.173Z,15.95
2022-12-20T17:45:47.773Z,14.23
2022-12-20T17:48:17.194Z,14.55
2022-12-20T17:50:46.588Z,15.82
2022-12-20T17:53:15.401Z,16.00
2022-12-20T17:55:44.293Z,14.98
2022-12-20T17:58:13.225Z,16.58
2022-12-20T18:00:45.937Z,16.77
2022-12-20T18:03:37.963Z,16.65
2022-12-20T18:06:08.291Z,18.00
2022-12-20T18:08:37.960Z,17.63
2022-12-20T18:11:07.634Z,16.75
2022-12-20T18:13:37.004Z,19.42
2022-12-20T18:16:09.484Z,17.75
2022-12-20T18:18:38.782Z,19.03
2022-12-20T18:21:09.551Z,18.50
2022-12-20T18:23:39.709Z,20.05
2022-12-20T18:26:10.428Z,19.83
2022-12-20T18:28:40.595Z,21.25
2022-12-20T18:31:13.200Z,19.98
2022-12-20T18:33:42.412Z,20.40
2022-12-20T18:36:13.723Z,21.13
2022-12-20T18:38:47.008Z,22.02
2022-12-20T18:41:18.646Z,20.95
2022-12-20T18:43:47.802Z,20.35
2022-12-20T18:46:20.646Z,22.00
2022-12-20T18:48:52.953Z,20.08
2022-12-20T18:51:24.731Z,23.35
2022-12-20T18:53:57.809Z,19.50
2022-12-20T18:56:29.611Z,19.48
2022-12-20T18:59:06.239Z,20.63
2022-12-20T19:01:43.155Z,19.95
2022-12-20T19:04:14.246Z,22.75
2022-12-20T19:06:44.772Z,20.30
2022-12-20T19:09:16.217Z,22.77
2022-12-20T19:11:45.458Z,22.60
2022-12-20T19:14:15.398Z,23.25
2022-12-20T19:16:45.777Z,30.95
2022-12-20T19:19:15.225Z,50.20
2022-12-20T19:21:45.213Z,47.58
2022-12-20T19:24:16.261Z,30.17
2022-12-20T19:26:46.221Z,27.45
2022-12-20T19:29:16.008Z,26.50
2022-12-20T19:31:48.094Z,26.90
2022-12-20T19:34:19.713Z,27.08
2022-12-20T19:36:49.825Z,26.30
2022-12-20T19:39:23.612Z,27.40
2022-12-20T19:42:23.067Z,28.45
2022-12-20T19:44:43.485Z,31.42
2022-12-20T19:47:14.891Z,32.75
2022-12-20T19:49:44.761Z,31.67
2022-12-20T19:52:30.294Z,31.00
2022-12-20T19:54:59.796Z,29.23
2022-12-20T19:57:29.561Z,30.25
2022-12-20T19:59:58.895Z,28.77
2022-12-20T20:02:29.813Z,30.90
2022-12-20T20:05:02.302Z,29.08
2022-12-20T20:07:31.480Z,30.17
2022-12-20T20:10:01.476Z,27.98
2022-12-20T20:12:31.235Z,27.77
2022-12-20T20:15:00.740Z,30.48
2022-12-20T20:17:31.692Z,27.88
2022-12-20T20:20:01.314Z,30.33
2022-12-20T20:22:31.903Z,29.02
2022-12-20T20:25:01.056Z,26.40
2022-12-20T20:27:31.163Z,31.98
2022-12-20T20:30:03.811Z,29.25
2022-12-20T20:32:35.057Z,26.83
2022-12-20T20:35:04.458Z,34.22
2022-12-20T20:37:34.075Z,38.00
2022-12-20T20:40:03.871Z,28.75
2022-12-20T20:42:34.028Z,30.30
2022-12-20T20:45:03.705Z,29.92
2022-12-20T20:47:34.667Z,31.92
2022-12-20T20:50:04.345Z,30.40
2022-12-20T20:52:34.880Z,27.65
2022-12-20T20:55:04.717Z,26.45
2022-12-20T20:57:34.869Z,29.00
2022-12-20T21:00:05.127Z,30.33
2022-12-20T21:02:35.901Z,30.13
2022-12-20T21:07:56.514Z,27.60
2022-12-20T21:10:27.253Z,29.45
2022-12-20T21:12:57.590Z,28.15
2022-12-20T21:15:29.131Z,26.92
2022-12-20T21:18:00.506Z,28.75
2022-12-20T21:20:30.787Z,29.17
2022-12-20T21:23:01.832Z,30.55
2022-12-20T21:25:33.946Z,27.77
2022-12-20T21:28:04.632Z,25.52
2022-12-20T21:30:35.811Z,25.30
2022-12-20T21:33:07.091Z,25.02
2022-12-20T21:35:38.298Z,24.25
2022-12-20T21:38:07.554Z,23.20
2022-12-20T21:40:38.011Z,26.35
2022-12-20T21:43:07.232Z,22.02
2022-12-20T21:45:37.200Z,22.63
2022-12-20T21:48:08.266Z,21.20
2022-12-20T21:50:38.201Z,23.33
2022-12-20T21:53:07.455Z,21.58
2022-12-20T21:55:37.438Z,23.00
2022-12-20T21:58:07.049Z,21.70
2022-12-20T22:00:36.494Z,20.33
2022-12-20T22:03:07.719Z,20.45
2022-12-20T22:05:37.176Z,21.33
2022-12-20T22:08:08.888Z,20.10
2022-12-20T22:10:38.158Z,22.02
2022-12-20T22:13:08.151Z,21.45
2022-12-20T22:15:38.324Z,20.55
2022-12-20T22:18:10.129Z,18.80
2022-12-20T22:20:39.534Z,20.73
2022-12-20T22:23:09.358Z,21.98
2022-12-20T22:25:38.824Z,18.45
2022-12-20T22:28:11.013Z,19.83
2022-12-20T22:30:43.362Z,19.67
2022-12-20T22:33:14.661Z,18.60
2022-12-20T22:35:44.062Z,20.23
2022-12-20T22:38:13.576Z,18.13
2022-12-20T22:40:42.811Z,20.25
2022-12-20T22:43:12.064Z,19.85
2022-12-20T22:45:42.035Z,19.05
2022-12-20T22:48:11.459Z,20.17
2022-12-20T22:50:42.491Z,19.40
2022-12-20T22:55:44.006Z,18.15
2022-12-20T22:58:13.267Z,18.15
2022-12-20T23:00:42.495Z,17.88
2022-12-20T23:03:12.145Z,17.45
2022-12-20T23:05:51.613Z,16.98
2022-12-20T23:08:25.009Z,17.08
2022-12-20T23:11:11.852Z,17.45
2022-12-20T23:13:58.877Z,16.63
2022-12-20T23:16:28.659Z,17.13
2022-12-20T23:18:58.569Z,17.17
2022-12-20T23:21:46.844Z,17.17
2022-12-20T23:24:16.729Z,14.98
2022-12-20T23:26:45.962Z,16.00
2022-12-20T23:29:15.738Z,16.38
2022-12-20T23:31:46.320Z,13.90
2022-12-20T23:34:18.195Z,16.10
2022-12-20T23:36:48.860Z,13.88
2022-12-20T23:39:18.733Z,14.80
2022-12-20T23:41:48.285Z,13.05
2022-12-20T23:44:17.549Z,13.20
2022-12-20T23:46:47.468Z,12.40
2022-12-20T23:49:19.813Z,14.05
2022-12-20T23:51:50.397Z,12.63
2022-12-20T23:54:21.656Z,13.77
2022-12-20T23:56:51.578Z,10.88
2022-12-20T23:59:21.700Z,10.82
